sensor_id;sensor_type;location;lat;lon;timestamp;pressure;altitude;pressure_sealevel;temperature;humidity
61906;BME280;47863;55.766;37.672;2022-07-15T00:00:24;98759.72;;;17.74;77.16
61906;BME280;47863;55.766;37.672;2022-07-15T00:02:49;98768.22;;;17.77;76.70
61906;BME280;47863;55.766;37.672;2022-07-15T00:05:15;98762.91;;;17.82;76.93
61906;BME280;47863;55.766;37.672;2022-07-15T00:07:41;98756.69;;;17.82;75.82
61906;BME280;47863;55.766;37.672;2022-07-15T00:10:06;98767.91;;;17.86;76.33
61906;BME280;47863;55.766;37.672;2022-07-15T00:12:50;98768.81;;;17.79;76.02
61906;BME280;47863;55.766;37.672;2022-07-15T00:15:17;98769.63;;;17.80;75.09
61906;BME280;47863;55.766;37.672;2022-07-15T00:17:43;98772.56;;;17.78;75.85
61906;BME280;47863;55.766;37.672;2022-07-15T00:20:10;98775.28;;;17.78;76.03
61906;BME280;47863;55.766;37.672;2022-07-15T00:22:37;98771.97;;;17.76;76.04
61906;BME280;47863;55.766;37.672;2022-07-15T00:25:04;98774.91;;;17.75;76.38
61906;BME280;47863;55.766;37.672;2022-07-15T00:27:30;98769.03;;;17.66;75.56
61906;BME280;47863;55.766;37.672;2022-07-15T00:29:55;98767.84;;;17.62;74.64
61906;BME280;47863;55.766;37.672;2022-07-15T00:32:22;98775.97;;;17.62;75.26
61906;BME280;47863;55.766;37.672;2022-07-15T00:34:47;98774.50;;;17.59;74.53
61906;BME280;47863;55.766;37.672;2022-07-15T00:37:13;98781.44;;;17.55;74.99
61906;BME280;47863;55.766;37.672;2022-07-15T00:39:39;98786.75;;;17.50;74.12
61906;BME280;47863;55.766;37.672;2022-07-15T00:42:05;98786.75;;;17.50;74.75
61906;BME280;47863;55.766;37.672;2022-07-15T00:44:31;98783.91;;;17.45;74.48
61906;BME280;47863;55.766;37.672;2022-07-15T00:46:56;98787.34;;;17.52;75.65
61906;BME280;47863;55.766;37.672;2022-07-15T00:49:24;98786.75;;;17.50;74.54
61906;BME280;47863;55.766;37.672;2022-07-15T00:51:50;98780.25;;;17.51;74.54
61906;BME280;47863;55.766;37.672;2022-07-15T00:54:19;98762.56;;;17.37;74.37
61906;BME280;47863;55.766;37.672;2022-07-15T00:56:53;98790.28;;;17.51;74.33
61906;BME280;47863;55.766;37.672;2022-07-15T00:59:21;98781.06;;;17.40;74.73
61906;BME280;47863;55.766;37.672;2022-07-15T01:01:47;98790.50;;;17.49;75.03
61906;BME280;47863;55.766;37.672;2022-07-15T01:04:13;98791.19;;;17.44;75.08
61906;BME280;47863;55.766;37.672;2022-07-15T01:06:40;98799.31;;;17.44;75.75
61906;BME280;47863;55.766;37.672;2022-07-15T01:09:06;98795.66;;;17.39;74.67
61906;BME280;47863;55.766;37.672;2022-07-15T01:11:32;98789.50;;;17.32;74.96
61906;BME280;47863;55.766;37.672;2022-07-15T01:13:58;98798.25;;;17.34;75.43
61906;BME280;47863;55.766;37.672;2022-07-15T01:16:25;98805.72;;;17.32;74.49
61906;BME280;47863;55.766;37.672;2022-07-15T01:18:52;98804.53;;;17.28;74.38
61906;BME280;47863;55.766;37.672;2022-07-15T01:21:18;98811.84;;;17.27;75.44
61906;BME280;47863;55.766;37.672;2022-07-15T01:23:43;98805.00;;;17.24;75.03
61906;BME280;47863;55.766;37.672;2022-07-15T01:26:10;98814.78;;;17.25;75.19
61906;BME280;47863;55.766;37.672;2022-07-15T01:28:37;98820.78;;;17.28;75.74
61906;BME280;47863;55.766;37.672;2022-07-15T01:31:03;98826.19;;;17.28;75.59
61906;BME280;47863;55.766;37.672;2022-07-15T01:33:29;98827.25;;;17.27;74.71
61906;BME280;47863;55.766;37.672;2022-07-15T01:35:58;98837.88;;;17.28;75.07
61906;BME280;47863;55.766;37.672;2022-07-15T01:38:24;98837.41;;;17.31;75.82
61906;BME280;47863;55.766;37.672;2022-07-15T01:40:50;98812.53;;;17.22;75.91
61906;BME280;47863;55.766;37.672;2022-07-15T01:43:16;98831.91;;;17.38;75.52
61906;BME280;47863;55.766;37.672;2022-07-15T01:45:42;98824.22;;;17.35;75.53
61906;BME280;47863;55.766;37.672;2022-07-15T01:48:09;98816.13;;;17.35;75.35
61906;BME280;47863;55.766;37.672;2022-07-15T01:50:56;98833.44;;;17.45;76.09
61906;BME280;47863;55.766;37.672;2022-07-15T01:53:23;98834.88;;;17.48;75.57
61906;BME280;47863;55.766;37.672;2022-07-15T01:55:49;98839.84;;;17.51;74.73
61906;BME280;47863;55.766;37.672;2022-07-15T01:58:15;98842.09;;;17.54;75.39
61906;BME280;47863;55.766;37.672;2022-07-15T02:00:40;98828.88;;;17.46;75.72
61906;BME280;47863;55.766;37.672;2022-07-15T02:03:06;98832.69;;;17.57;75.66
61906;BME280;47863;55.766;37.672;2022-07-15T02:05:33;98830.66;;;17.52;76.03
61906;BME280;47863;55.766;37.672;2022-07-15T02:07:59;98829.84;;;17.52;76.23
61906;BME280;47863;55.766;37.672;2022-07-15T02:10:25;98832.19;;;17.48;76.74
61906;BME280;47863;55.766;37.672;2022-07-15T02:12:51;98839.22;;;17.49;76.68
61906;BME280;47863;55.766;37.672;2022-07-15T02:15:16;98830.41;;;17.42;76.69
61906;BME280;47863;55.766;37.672;2022-07-15T02:17:42;98839.34;;;17.42;76.89
61906;BME280;47863;55.766;37.672;2022-07-15T02:20:08;98840.63;;;17.40;77.08
61906;BME280;47863;55.766;37.672;2022-07-15T02:22:35;98838.00;;;17.33;76.65
61906;BME280;47863;55.766;37.672;2022-07-15T02:25:03;98836.19;;;17.27;77.07
61906;BME280;47863;55.766;37.672;2022-07-15T02:27:29;98854.09;;;17.28;76.87
61906;BME280;47863;55.766;37.672;2022-07-15T02:29:54;98849.59;;;17.22;77.37
61906;BME280;47863;55.766;37.672;2022-07-15T02:32:21;98848.38;;;17.18;77.77
61906;BME280;47863;55.766;37.672;2022-07-15T02:34:47;98853.56;;;17.19;76.96
61906;BME280;47863;55.766;37.672;2022-07-15T02:37:12;98863.25;;;17.27;77.44
61906;BME280;47863;55.766;37.672;2022-07-15T02:39:38;98865.28;;;17.32;77.42
61906;BME280;47863;55.766;37.672;2022-07-15T02:42:04;98850.69;;;17.33;76.57
61906;BME280;47863;55.766;37.672;2022-07-15T02:44:31;98844.38;;;17.39;76.83
61906;BME280;47863;55.766;37.672;2022-07-15T02:46:56;98844.84;;;17.36;77.14
61906;BME280;47863;55.766;37.672;2022-07-15T02:49:22;98840.47;;;17.35;76.71
61906;BME280;47863;55.766;37.672;2022-07-15T02:51:48;98847.09;;;17.39;77.23
61906;BME280;47863;55.766;37.672;2022-07-15T02:54:14;98844.47;;;17.32;77.39
61906;BME280;47863;55.766;37.672;2022-07-15T02:56:39;98850.69;;;17.33;76.54
61906;BME280;47863;55.766;37.672;2022-07-15T02:59:05;98861.91;;;17.36;76.94
61906;BME280;47863;55.766;37.672;2022-07-15T03:01:30;98845.66;;;17.36;76.91
61906;BME280;47863;55.766;37.672;2022-07-15T03:03:56;98859.41;;;17.35;76.02
61906;BME280;47863;55.766;37.672;2022-07-15T03:06:22;98852.38;;;17.34;76.28
61906;BME280;47863;55.766;37.672;2022-07-15T03:08:47;98852.44;;;17.27;76.82
61906;BME280;47863;55.766;37.672;2022-07-15T03:11:13;98852.00;;;17.30;76.07
61906;BME280;47863;55.766;37.672;2022-07-15T03:13:38;98843.94;;;17.23;76.63
61906;BME280;47863;55.766;37.672;2022-07-15T03:16:04;98853.94;;;17.23;76.71
61906;BME280;47863;55.766;37.672;2022-07-15T03:18:29;98874.47;;;17.31;76.13
61906;BME280;47863;55.766;37.672;2022-07-15T03:20:55;98869.22;;;17.36;76.72
61906;BME280;47863;55.766;37.672;2022-07-15T03:23:20;98861.69;;;17.38;75.99
61906;BME280;47863;55.766;37.672;2022-07-15T03:25:46;98869.75;;;17.56;75.27
61906;BME280;47863;55.766;37.672;2022-07-15T03:28:13;98881.38;;;17.75;73.82
61906;BME280;47863;55.766;37.672;2022-07-15T03:30:39;98886.53;;;17.95;73.77
61906;BME280;47863;55.766;37.672;2022-07-15T03:33:04;98893.78;;;18.13;73.00
61906;BME280;47863;55.766;37.672;2022-07-15T03:35:30;98892.63;;;18.33;72.66
61906;BME280;47863;55.766;37.672;2022-07-15T03:37:56;98877.44;;;18.43;71.81
61906;BME280;47863;55.766;37.672;2022-07-15T03:40:21;98872.97;;;18.61;71.00
61906;BME280;47863;55.766;37.672;2022-07-15T03:42:47;98885.22;;;18.75;71.34
61906;BME280;47863;55.766;37.672;2022-07-15T03:45:13;98888.78;;;18.88;69.06
61906;BME280;47863;55.766;37.672;2022-07-15T03:47:38;98893.72;;;19.02;68.77
61906;BME280;47863;55.766;37.672;2022-07-15T03:50:04;98896.53;;;19.19;68.75
61906;BME280;47863;55.766;37.672;2022-07-15T03:52:30;98895.91;;;19.29;68.23
61906;BME280;47863;55.766;37.672;2022-07-15T03:54:56;98892.00;;;19.37;67.55
61906;BME280;47863;55.766;37.672;2022-07-15T03:57:21;98884.53;;;19.44;67.08
61906;BME280;47863;55.766;37.672;2022-07-15T03:59:50;98881.59;;;19.46;66.10
61906;BME280;47863;55.766;37.672;2022-07-15T04:02:16;98888.69;;;19.35;66.08
61906;BME280;47863;55.766;37.672;2022-07-15T04:04:41;98898.66;;;19.17;67.43
61906;BME280;47863;55.766;37.672;2022-07-15T04:07:07;98912.38;;;18.99;68.41
61906;BME280;47863;55.766;37.672;2022-07-15T04:09:32;98911.31;;;18.88;68.93
61906;BME280;47863;55.766;37.672;2022-07-15T04:11:58;98915.06;;;18.75;68.68
61906;BME280;47863;55.766;37.672;2022-07-15T04:14:23;98917.53;;;18.65;69.34
61906;BME280;47863;55.766;37.672;2022-07-15T04:16:49;98921.31;;;18.52;70.21
61906;BME280;47863;55.766;37.672;2022-07-15T04:19:15;98925.28;;;18.50;71.55
61906;BME280;47863;55.766;37.672;2022-07-15T04:21:40;98919.06;;;18.49;70.83
61906;BME280;47863;55.766;37.672;2022-07-15T04:24:06;98911.06;;;18.54;71.06
61906;BME280;47863;55.766;37.672;2022-07-15T04:26:31;98923.09;;;18.58;69.32
61906;BME280;47863;55.766;37.672;2022-07-15T04:28:57;98933.81;;;18.65;70.88
61906;BME280;47863;55.766;37.672;2022-07-15T04:31:23;98937.25;;;18.72;70.49
61906;BME280;47863;55.766;37.672;2022-07-15T04:33:48;98935.94;;;18.75;69.18
61906;BME280;47863;55.766;37.672;2022-07-15T04:36:14;98936.28;;;18.78;68.39
61906;BME280;47863;55.766;37.672;2022-07-15T04:38:39;98952.72;;;18.83;68.63
61906;BME280;47863;55.766;37.672;2022-07-15T04:41:05;98964.75;;;18.88;68.28
61906;BME280;47863;55.766;37.672;2022-07-15T04:43:31;98970.53;;;18.91;69.34
61906;BME280;47863;55.766;37.672;2022-07-15T04:45:57;98953.06;;;18.87;68.04
61906;BME280;47863;55.766;37.672;2022-07-15T04:48:22;98964.66;;;18.94;69.47
61906;BME280;47863;55.766;37.672;2022-07-15T04:51:07;98970.44;;;18.98;70.11
61906;BME280;47863;55.766;37.672;2022-07-15T04:53:32;98973.25;;;19.03;67.67
61906;BME280;47863;55.766;37.672;2022-07-15T04:55:58;98956.28;;;18.96;67.51
61906;BME280;47863;55.766;37.672;2022-07-15T04:58:23;98969.25;;;19.06;67.72
61906;BME280;47863;55.766;37.672;2022-07-15T05:00:49;98984.91;;;19.03;69.53
61906;BME280;47863;55.766;37.672;2022-07-15T05:03:15;98980.22;;;19.11;67.21
61906;BME280;47863;55.766;37.672;2022-07-15T05:05:40;98969.84;;;19.19;67.88
61906;BME280;47863;55.766;37.672;2022-07-15T05:08:07;98984.31;;;19.37;66.87
61906;BME280;47863;55.766;37.672;2022-07-15T05:10:32;98978.84;;;19.60;67.12
61906;BME280;47863;55.766;37.672;2022-07-15T05:12:58;98972.97;;;19.92;65.33
61906;BME280;47863;55.766;37.672;2022-07-15T05:15:24;98973.59;;;20.40;64.23
61906;BME280;47863;55.766;37.672;2022-07-15T05:17:50;98978.59;;;20.77;61.80
61906;BME280;47863;55.766;37.672;2022-07-15T05:20:16;98968.59;;;20.83;62.07
61906;BME280;47863;55.766;37.672;2022-07-15T05:22:41;98954.75;;;20.84;61.97
61906;BME280;47863;55.766;37.672;2022-07-15T05:25:07;98944.69;;;20.85;61.41
61906;BME280;47863;55.766;37.672;2022-07-15T05:27:33;98940.06;;;20.85;61.85
61906;BME280;47863;55.766;37.672;2022-07-15T05:29:58;98935.78;;;20.89;61.29
61906;BME280;47863;55.766;37.672;2022-07-15T05:32:24;98928.34;;;20.85;61.78
61906;BME280;47863;55.766;37.672;2022-07-15T05:34:50;98934.56;;;20.80;61.79
61906;BME280;47863;55.766;37.672;2022-07-15T05:37:15;98923.44;;;20.82;62.46
61906;BME280;47863;55.766;37.672;2022-07-15T05:39:41;98915.84;;;20.84;62.54
61906;BME280;47863;55.766;37.672;2022-07-15T05:42:27;98916.22;;;20.92;62.12
61906;BME280;47863;55.766;37.672;2022-07-15T05:44:52;98939.13;;;21.13;60.42
61906;BME280;47863;55.766;37.672;2022-07-15T05:47:18;98939.84;;;21.26;60.28
61906;BME280;47863;55.766;37.672;2022-07-15T05:49:43;98939.56;;;21.44;58.93
61906;BME280;47863;55.766;37.672;2022-07-15T05:52:09;98942.34;;;21.71;59.38
61906;BME280;47863;55.766;37.672;2022-07-15T05:54:34;98944.72;;;21.90;59.07
61906;BME280;47863;55.766;37.672;2022-07-15T05:57:03;98935.56;;;22.01;57.56
61906;BME280;47863;55.766;37.672;2022-07-15T05:59:28;98939.75;;;22.09;57.01
61906;BME280;47863;55.766;37.672;2022-07-15T06:01:55;98933.97;;;22.05;56.02
61906;BME280;47863;55.766;37.672;2022-07-15T06:04:20;98948.72;;;22.04;56.78
61906;BME280;47863;55.766;37.672;2022-07-15T06:06:46;98948.44;;;22.06;57.67
61906;BME280;47863;55.766;37.672;2022-07-15T06:09:13;98951.16;;;22.06;56.97
61906;BME280;47863;55.766;37.672;2022-07-15T06:11:38;98939.28;;;22.17;57.59
61906;BME280;47863;55.766;37.672;2022-07-15T06:14:04;98935.03;;;22.26;57.82
61906;BME280;47863;55.766;37.672;2022-07-15T06:16:30;98940.47;;;22.53;55.80
61906;BME280;47863;55.766;37.672;2022-07-15T06:18:56;98940.66;;;22.79;55.06
61906;BME280;47863;55.766;37.672;2022-07-15T06:21:21;98922.78;;;22.99;54.23
61906;BME280;47863;55.766;37.672;2022-07-15T06:23:47;98923.66;;;23.04;52.91
61906;BME280;47863;55.766;37.672;2022-07-15T06:26:12;98928.34;;;23.14;51.78
61906;BME280;47863;55.766;37.672;2022-07-15T06:28:38;98922.91;;;23.19;51.49
61906;BME280;47863;55.766;37.672;2022-07-15T06:31:04;98937.66;;;23.18;52.40
61906;BME280;47863;55.766;37.672;2022-07-15T06:33:29;98933.81;;;23.14;53.45
61906;BME280;47863;55.766;37.672;2022-07-15T06:35:55;98935.41;;;23.10;51.02
61906;BME280;47863;55.766;37.672;2022-07-15T06:38:21;98925.91;;;23.12;51.76
61906;BME280;47863;55.766;37.672;2022-07-15T06:40:47;98932.47;;;23.22;51.06
61906;BME280;47863;55.766;37.672;2022-07-15T06:43:12;98923.59;;;23.47;52.18
61906;BME280;47863;55.766;37.672;2022-07-15T06:45:38;98927.22;;;23.63;50.80
61906;BME280;47863;55.766;37.672;2022-07-15T06:48:04;98937.13;;;23.79;50.63
61906;BME280;47863;55.766;37.672;2022-07-15T06:50:30;98938.28;;;23.93;49.70
61906;BME280;47863;55.766;37.672;2022-07-15T06:52:56;98922.41;;;24.01;50.73
61906;BME280;47863;55.766;37.672;2022-07-15T06:55:22;98948.97;;;24.21;48.78
61906;BME280;47863;55.766;37.672;2022-07-15T06:57:47;98938.06;;;24.41;48.35
61906;BME280;47863;55.766;37.672;2022-07-15T07:00:13;98943.88;;;24.70;46.48
61906;BME280;47863;55.766;37.672;2022-07-15T07:02:40;98949.25;;;25.27;45.53
61906;BME280;47863;55.766;37.672;2022-07-15T07:05:06;98967.13;;;25.84;43.30
61906;BME280;47863;55.766;37.672;2022-07-15T07:07:34;98960.22;;;26.47;42.07
61906;BME280;47863;55.766;37.672;2022-07-15T07:09:59;98962.63;;;27.17;41.05
61906;BME280;47863;55.766;37.672;2022-07-15T07:12:25;98964.03;;;27.87;39.55
61906;BME280;47863;55.766;37.672;2022-07-15T07:14:51;98964.25;;;28.53;36.85
61906;BME280;47863;55.766;37.672;2022-07-15T07:17:16;98977.94;;;29.65;36.40
61906;BME280;47863;55.766;37.672;2022-07-15T07:19:42;98985.75;;;31.09;33.91
61906;BME280;47863;55.766;37.672;2022-07-15T07:22:08;98971.50;;;32.56;31.06
61906;BME280;47863;55.766;37.672;2022-07-15T07:24:33;98964.34;;;33.97;29.57
61906;BME280;47863;55.766;37.672;2022-07-15T07:26:59;98977.53;;;34.72;28.17
61906;BME280;47863;55.766;37.672;2022-07-15T07:29:24;98983.09;;;34.72;28.36
61906;BME280;47863;55.766;37.672;2022-07-15T07:31:51;98980.19;;;34.68;29.25
61906;BME280;47863;55.766;37.672;2022-07-15T07:34:17;98969.34;;;34.33;28.05
61906;BME280;47863;55.766;37.672;2022-07-15T07:36:44;98976.47;;;33.63;27.87
61906;BME280;47863;55.766;37.672;2022-07-15T07:39:11;98972.78;;;32.50;29.72
61906;BME280;47863;55.766;37.672;2022-07-15T07:41:36;98961.44;;;31.28;30.99
61906;BME280;47863;55.766;37.672;2022-07-15T07:44:02;98977.38;;;30.32;31.73
61906;BME280;47863;55.766;37.672;2022-07-15T07:46:27;98969.25;;;29.85;33.35
61906;BME280;47863;55.766;37.672;2022-07-15T07:48:53;98983.69;;;30.92;30.81
61906;BME280;47863;55.766;37.672;2022-07-15T07:51:18;98986.63;;;32.50;28.60
61906;BME280;47863;55.766;37.672;2022-07-15T07:53:44;98987.00;;;34.08;25.93
61906;BME280;47863;55.766;37.672;2022-07-15T07:56:11;98986.91;;;34.46;25.23
61906;BME280;47863;55.766;37.672;2022-07-15T07:58:38;98976.75;;;34.63;24.46
61906;BME280;47863;55.766;37.672;2022-07-15T08:01:04;98972.47;;;34.86;24.30
61906;BME280;47863;55.766;37.672;2022-07-15T08:03:30;98978.19;;;34.90;23.41
61906;BME280;47863;55.766;37.672;2022-07-15T08:05:56;98970.66;;;35.03;23.68
61906;BME280;47863;55.766;37.672;2022-07-15T08:08:22;98976.19;;;35.24;23.56
61906;BME280;47863;55.766;37.672;2022-07-15T08:10:56;98962.50;;;35.55;24.10
61906;BME280;47863;55.766;37.672;2022-07-15T08:13:25;98987.56;;;36.58;22.95
61906;BME280;47863;55.766;37.672;2022-07-15T08:15:51;98981.00;;;37.22;21.44
61906;BME280;47863;55.766;37.672;2022-07-15T08:18:19;98963.34;;;38.01;20.30
61906;BME280;47863;55.766;37.672;2022-07-15T08:20:45;98959.13;;;38.85;19.67
61906;BME280;47863;55.766;37.672;2022-07-15T08:23:11;98962.03;;;39.35;19.22
61906;BME280;47863;55.766;37.672;2022-07-15T08:25:37;98961.13;;;39.51;18.88
61906;BME280;47863;55.766;37.672;2022-07-15T08:28:07;98969.94;;;39.30;20.10
61906;BME280;47863;55.766;37.672;2022-07-15T08:30:33;98980.81;;;37.47;20.63
61906;BME280;47863;55.766;37.672;2022-07-15T08:33:00;98995.47;;;36.03;22.19
61906;BME280;47863;55.766;37.672;2022-07-15T08:35:26;98998.44;;;34.90;21.49
61906;BME280;47863;55.766;37.672;2022-07-15T08:37:53;98998.69;;;33.92;23.52
61906;BME280;47863;55.766;37.672;2022-07-15T08:40:19;99008.81;;;33.67;23.30
61906;BME280;47863;55.766;37.672;2022-07-15T08:42:45;98999.63;;;33.75;24.84
61906;BME280;47863;55.766;37.672;2022-07-15T08:45:16;99010.06;;;34.92;23.08
61906;BME280;47863;55.766;37.672;2022-07-15T08:47:44;99008.59;;;36.55;20.56
61906;BME280;47863;55.766;37.672;2022-07-15T08:50:14;99008.44;;;38.16;19.33
61906;BME280;47863;55.766;37.672;2022-07-15T08:52:42;99009.84;;;39.23;17.63
61906;BME280;47863;55.766;37.672;2022-07-15T08:55:09;99025.34;;;39.86;17.33
61906;BME280;47863;55.766;37.672;2022-07-15T08:57:36;99032.56;;;40.40;16.82
61906;BME280;47863;55.766;37.672;2022-07-15T09:00:06;99023.72;;;40.69;17.03
61906;BME280;47863;55.766;37.672;2022-07-15T09:02:37;99019.13;;;40.87;16.83
61906;BME280;47863;55.766;37.672;2022-07-15T09:05:20;99035.03;;;41.51;17.24
61906;BME280;47863;55.766;37.672;2022-07-15T09:10:23;99040.28;;;42.67;14.22
61906;BME280;47863;55.766;37.672;2022-07-15T09:12:51;99033.59;;;43.00;13.58
61906;BME280;47863;55.766;37.672;2022-07-15T09:15:33;99045.63;;;42.93;16.02
61906;BME280;47863;55.766;37.672;2022-07-15T09:20:35;99027.75;;;41.87;14.72
61906;BME280;47863;55.766;37.672;2022-07-15T09:23:01;99027.09;;;42.12;14.89
61906;BME280;47863;55.766;37.672;2022-07-15T09:25:28;99028.75;;;43.01;14.21
61906;BME280;47863;55.766;37.672;2022-07-15T09:27:54;99019.50;;;43.14;13.43
61906;BME280;47863;55.766;37.672;2022-07-15T09:30:28;99024.28;;;42.89;13.54
61906;BME280;47863;55.766;37.672;2022-07-15T09:33:21;99038.84;;;43.27;13.69
61906;BME280;47863;55.766;37.672;2022-07-15T09:36:07;99038.53;;;42.40;14.53
61906;BME280;47863;55.766;37.672;2022-07-15T09:38:47;99044.78;;;41.60;15.21
61906;BME280;47863;55.766;37.672;2022-07-15T09:41:32;99037.47;;;41.52;15.47
61906;BME280;47863;55.766;37.672;2022-07-15T09:46:59;99040.09;;;42.38;14.54
61906;BME280;47863;55.766;37.672;2022-07-15T09:51:57;99032.50;;;38.75;17.13
61906;BME280;47863;55.766;37.672;2022-07-15T09:54:28;99035.94;;;37.34;17.55
61906;BME280;47863;55.766;37.672;2022-07-15T09:56:58;99032.75;;;35.73;18.80
61906;BME280;47863;55.766;37.672;2022-07-15T09:59:25;99034.28;;;34.29;20.92
61906;BME280;47863;55.766;37.672;2022-07-15T10:01:50;99034.91;;;33.19;21.43
61906;BME280;47863;55.766;37.672;2022-07-15T10:04:22;99031.69;;;32.65;22.99
61906;BME280;47863;55.766;37.672;2022-07-15T10:06:49;99039.00;;;33.13;22.52
61906;BME280;47863;55.766;37.672;2022-07-15T10:09:23;99035.19;;;34.84;21.21
61906;BME280;47863;55.766;37.672;2022-07-15T10:11:52;99028.09;;;36.14;19.57
61906;BME280;47863;55.766;37.672;2022-07-15T10:30:19;99046.44;;;41.24;14.88
61906;BME280;47863;55.766;37.672;2022-07-15T10:35:50;99037.75;;;39.62;15.33
61906;BME280;47863;55.766;37.672;2022-07-15T10:41:04;99039.56;;;35.64;18.81
61906;BME280;47863;55.766;37.672;2022-07-15T10:56:58;99049.22;;;32.16;22.17
61906;BME280;47863;55.766;37.672;2022-07-15T10:59:26;99031.81;;;31.13;24.19
61906;BME280;47863;55.766;37.672;2022-07-15T11:04:26;99052.34;;;29.56;25.81
61906;BME280;47863;55.766;37.672;2022-07-15T11:14:59;99052.06;;;27.39;28.83
61906;BME280;47863;55.766;37.672;2022-07-15T11:20:10;99054.47;;;27.45;27.81
61906;BME280;47863;55.766;37.672;2022-07-15T11:22:41;99055.63;;;28.17;28.72
61906;BME280;47863;55.766;37.672;2022-07-15T11:25:27;99063.31;;;30.03;27.39
61906;BME280;47863;55.766;37.672;2022-07-15T11:28:02;99051.81;;;31.41;24.70
61906;BME280;47863;55.766;37.672;2022-07-15T11:30:42;99061.25;;;31.40;24.17
61906;BME280;47863;55.766;37.672;2022-07-15T11:33:14;99056.47;;;31.55;23.93
61906;BME280;47863;55.766;37.672;2022-07-15T11:38:12;99065.16;;;30.72;25.35
61906;BME280;47863;55.766;37.672;2022-07-15T11:40:44;99040.66;;;30.29;25.81
61906;BME280;47863;55.766;37.672;2022-07-15T11:43:29;99049.91;;;29.69;26.47
61906;BME280;47863;55.766;37.672;2022-07-15T11:46:14;99056.66;;;28.97;27.28
61906;BME280;47863;55.766;37.672;2022-07-15T11:48:41;99059.34;;;28.26;28.92
61906;BME280;47863;55.766;37.672;2022-07-15T11:51:08;99056.88;;;27.76;30.06
61906;BME280;47863;55.766;37.672;2022-07-15T11:53:43;99073.13;;;27.48;30.08
61906;BME280;47863;55.766;37.672;2022-07-15T11:56:10;99069.81;;;27.17;30.73
61906;BME280;47863;55.766;37.672;2022-07-15T11:58:44;99075.44;;;27.41;30.16
61906;BME280;47863;55.766;37.672;2022-07-15T12:01:13;99076.09;;;27.81;30.17
61906;BME280;47863;55.766;37.672;2022-07-15T12:03:45;99072.97;;;27.93;30.16
61906;BME280;47863;55.766;37.672;2022-07-15T12:06:12;99081.66;;;28.24;28.60
61906;BME280;47863;55.766;37.672;2022-07-15T12:08:59;99079.47;;;28.02;28.72
61906;BME280;47863;55.766;37.672;2022-07-15T12:14:02;99069.25;;;27.79;29.85
61906;BME280;47863;55.766;37.672;2022-07-15T12:19:08;99056.41;;;27.10;31.84
61906;BME280;47863;55.766;37.672;2022-07-15T12:21:38;99071.06;;;27.01;31.54
61906;BME280;47863;55.766;37.672;2022-07-15T12:24:06;99068.50;;;26.75;31.66
61906;BME280;47863;55.766;37.672;2022-07-15T12:26:35;99079.13;;;26.42;30.85
61906;BME280;47863;55.766;37.672;2022-07-15T12:29:02;99072.94;;;26.16;31.21
61906;BME280;47863;55.766;37.672;2022-07-15T12:31:31;99077.66;;;26.05;30.84
61906;BME280;47863;55.766;37.672;2022-07-15T12:33:57;99084.56;;;25.87;31.38
61906;BME280;47863;55.766;37.672;2022-07-15T12:36:25;99075.25;;;25.73;32.50
61906;BME280;47863;55.766;37.672;2022-07-15T12:39:09;99077.44;;;25.76;31.70
61906;BME280;47863;55.766;37.672;2022-07-15T12:41:40;99076.38;;;25.62;32.53
61906;BME280;47863;55.766;37.672;2022-07-15T12:44:07;99081.59;;;25.63;33.62
61906;BME280;47863;55.766;37.672;2022-07-15T12:46:52;99089.50;;;25.85;32.44
61906;BME280;47863;55.766;37.672;2022-07-15T12:49:50;99092.78;;;25.98;32.11
61906;BME280;47863;55.766;37.672;2022-07-15T12:52:20;99091.16;;;25.76;33.49
61906;BME280;47863;55.766;37.672;2022-07-15T12:54:47;99103.75;;;25.87;33.17
61906;BME280;47863;55.766;37.672;2022-07-15T12:57:34;99098.00;;;25.89;32.72
61906;BME280;47863;55.766;37.672;2022-07-15T13:00:07;99107.56;;;25.97;32.39
61906;BME280;47863;55.766;37.672;2022-07-15T13:03:15;99091.16;;;25.91;32.19
61906;BME280;47863;55.766;37.672;2022-07-15T13:05:47;99099.13;;;25.78;31.83
61906;BME280;47863;55.766;37.672;2022-07-15T13:08:24;99095.59;;;25.62;31.53
61906;BME280;47863;55.766;37.672;2022-07-15T13:10:55;99089.56;;;25.39;32.55
61906;BME280;47863;55.766;37.672;2022-07-15T13:13:25;99082.47;;;25.23;34.21
61906;BME280;47863;55.766;37.672;2022-07-15T13:15:51;99088.22;;;25.16;32.43
61906;BME280;47863;55.766;37.672;2022-07-15T13:18:17;99100.53;;;24.98;32.81
61906;BME280;47863;55.766;37.672;2022-07-15T13:20:44;99089.53;;;24.78;33.86
61906;BME280;47863;55.766;37.672;2022-07-15T13:23:10;99098.56;;;24.68;34.24
61906;BME280;47863;55.766;37.672;2022-07-15T13:25:37;99103.25;;;24.72;34.36
61906;BME280;47863;55.766;37.672;2022-07-15T13:28:05;99097.22;;;24.70;34.19
61906;BME280;47863;55.766;37.672;2022-07-15T13:30:32;99104.06;;;24.73;33.66
61906;BME280;47863;55.766;37.672;2022-07-15T13:32:58;99108.44;;;24.69;33.60
61906;BME280;47863;55.766;37.672;2022-07-15T13:35:24;99111.41;;;24.57;33.07
61906;BME280;47863;55.766;37.672;2022-07-15T13:37:50;99103.31;;;24.20;34.65
61906;BME280;47863;55.766;37.672;2022-07-15T13:40:16;99097.47;;;24.01;35.31
61906;BME280;47863;55.766;37.672;2022-07-15T13:42:42;99099.09;;;23.97;34.80
61906;BME280;47863;55.766;37.672;2022-07-15T13:45:10;99101.22;;;23.84;35.96
61906;BME280;47863;55.766;37.672;2022-07-15T13:47:36;99102.03;;;23.80;35.48
61906;BME280;47863;55.766;37.672;2022-07-15T13:50:02;99096.81;;;23.78;34.88
61906;BME280;47863;55.766;37.672;2022-07-15T13:52:48;99095.25;;;23.92;35.02
61906;BME280;47863;55.766;37.672;2022-07-15T13:55:15;99095.78;;;23.89;34.66
61906;BME280;47863;55.766;37.672;2022-07-15T13:57:42;99106.41;;;23.81;35.71
61906;BME280;47863;55.766;37.672;2022-07-15T14:00:10;99105.59;;;23.85;35.48